sensor_id;sensor_type;location;lat;lon;timestamp;P1;durP1;ratioP1;P2;durP2;ratioP2
54641;SDS011;40536;53.194;5.728;2022-09-09T00:02:20;213.60;;;203.55;;
54641;SDS011;40536;53.194;5.728;2022-09-09T00:04:57;238.20;;;227.32;;
54641;SDS011;40536;53.194;5.728;2022-09-09T00:15:57;264.50;;;251.60;;
54641;SDS011;40536;53.194;5.728;2022-09-09T00:21:15;321.75;;;306.20;;
54641;SDS011;40536;53.194;5.728;2022-09-09T00:23:53;334.13;;;317.08;;
54641;SDS011;40536;53.194;5.728;2022-09-09T00:31:39;331.27;;;315.38;;
54641;SDS011;40536;53.194;5.728;2022-09-09T00:36:41;308.08;;;293.10;;
54641;SDS011;40536;53.194;5.728;2022-09-09T00:39:11;265.80;;;252.70;;
54641;SDS011;40536;53.194;5.728;2022-09-09T00:47:50;301.80;;;287.73;;
54641;SDS011;40536;53.194;5.728;2022-09-09T00:56:20;311.13;;;295.50;;
54641;SDS011;40536;53.194;5.728;2022-09-09T01:01:35;277.67;;;263.83;;
54641;SDS011;40536;53.194;5.728;2022-09-09T01:04:01;304.33;;;289.70;;
54641;SDS011;40536;53.194;5.728;2022-09-09T01:06:34;305.48;;;290.52;;
54641;SDS011;40536;53.194;5.728;2022-09-09T01:14:42;294.75;;;280.55;;
54641;SDS011;40536;53.194;5.728;2022-09-09T01:17:24;322.88;;;307.38;;
54641;SDS011;40536;53.194;5.728;2022-09-09T01:22:35;352.13;;;334.48;;
54641;SDS011;40536;53.194;5.728;2022-09-09T01:28:22;361.98;;;343.50;;
54641;SDS011;40536;53.194;5.728;2022-09-09T01:30:52;361.95;;;343.90;;
54641;SDS011;40536;53.194;5.728;2022-09-09T01:33:19;350.30;;;333.20;;
54641;SDS011;40536;53.194;5.728;2022-09-09T01:38:16;285.08;;;271.30;;
54641;SDS011;40536;53.194;5.728;2022-09-09T01:40:42;303.52;;;288.75;;
54641;SDS011;40536;53.194;5.728;2022-09-09T01:43:09;249.02;;;236.88;;
54641;SDS011;40536;53.194;5.728;2022-09-09T01:45:35;283.00;;;269.33;;
54641;SDS011;40536;53.194;5.728;2022-09-09T01:48:02;283.75;;;269.90;;
54641;SDS011;40536;53.194;5.728;2022-09-09T01:50:28;207.93;;;197.48;;
54641;SDS011;40536;53.194;5.728;2022-09-09T01:52:56;178.18;;;168.48;;
54641;SDS011;40536;53.194;5.728;2022-09-09T01:55:30;173.65;;;164.75;;
54641;SDS011;40536;53.194;5.728;2022-09-09T02:01:00;220.60;;;209.52;;
54641;SDS011;40536;53.194;5.728;2022-09-09T02:03:36;280.02;;;265.65;;
54641;SDS011;40536;53.194;5.728;2022-09-09T02:06:08;293.98;;;279.58;;
54641;SDS011;40536;53.194;5.728;2022-09-09T02:08:52;297.77;;;283.25;;
54641;SDS011;40536;53.194;5.728;2022-09-09T02:11:23;318.93;;;303.57;;
54641;SDS011;40536;53.194;5.728;2022-09-09T02:14:00;322.45;;;306.67;;
54641;SDS011;40536;53.194;5.728;2022-09-09T02:16:44;308.48;;;292.95;;
54641;SDS011;40536;53.194;5.728;2022-09-09T02:19:42;240.60;;;228.98;;
54641;SDS011;40536;53.194;5.728;2022-09-09T02:22:13;173.95;;;164.80;;
54641;SDS011;40536;53.194;5.728;2022-09-09T02:24:42;149.27;;;141.27;;
54641;SDS011;40536;53.194;5.728;2022-09-09T02:27:11;151.20;;;143.25;;
54641;SDS011;40536;53.194;5.728;2022-09-09T02:29:41;127.50;;;120.43;;
54641;SDS011;40536;53.194;5.728;2022-09-09T02:32:11;148.23;;;140.55;;
54641;SDS011;40536;53.194;5.728;2022-09-09T02:34:48;139.73;;;131.80;;
54641;SDS011;40536;53.194;5.728;2022-09-09T02:37:22;123.22;;;116.30;;
54641;SDS011;40536;53.194;5.728;2022-09-09T02:39:53;115.57;;;108.72;;
54641;SDS011;40536;53.194;5.728;2022-09-09T02:42:19;118.85;;;112.50;;
54641;SDS011;40536;53.194;5.728;2022-09-09T02:44:45;130.88;;;123.05;;
54641;SDS011;40536;53.194;5.728;2022-09-09T02:47:24;104.05;;;98.18;;
54641;SDS011;40536;53.194;5.728;2022-09-09T02:55:11;104.63;;;98.82;;
54641;SDS011;40536;53.194;5.728;2022-09-09T02:57:43;103.47;;;97.63;;
54641;SDS011;40536;53.194;5.728;2022-09-09T03:00:12;118.53;;;112.22;;
54641;SDS011;40536;53.194;5.728;2022-09-09T03:02:38;116.60;;;110.35;;
54641;SDS011;40536;53.194;5.728;2022-09-09T03:05:04;105.70;;;99.88;;
54641;SDS011;40536;53.194;5.728;2022-09-09T03:07:31;130.27;;;122.63;;
54641;SDS011;40536;53.194;5.728;2022-09-09T03:09:56;133.80;;;126.70;;
54641;SDS011;40536;53.194;5.728;2022-09-09T03:12:23;165.00;;;156.38;;
54641;SDS011;40536;53.194;5.728;2022-09-09T03:14:49;153.88;;;145.55;;
54641;SDS011;40536;53.194;5.728;2022-09-09T03:17:14;213.50;;;202.90;;
54641;SDS011;40536;53.194;5.728;2022-09-09T03:19:41;191.55;;;181.73;;
54641;SDS011;40536;53.194;5.728;2022-09-09T03:22:09;167.75;;;158.75;;
54641;SDS011;40536;53.194;5.728;2022-09-09T03:24:36;135.30;;;127.55;;
54641;SDS011;40536;53.194;5.728;2022-09-09T03:27:01;159.90;;;151.73;;
54641;SDS011;40536;53.194;5.728;2022-09-09T03:29:27;183.00;;;173.60;;
54641;SDS011;40536;53.194;5.728;2022-09-09T03:31:53;284.25;;;270.17;;
54641;SDS011;40536;53.194;5.728;2022-09-09T03:34:18;310.75;;;296.00;;
54641;SDS011;40536;53.194;5.728;2022-09-09T03:36:44;353.80;;;336.42;;
54641;SDS011;40536;53.194;5.728;2022-09-09T03:39:10;346.10;;;329.00;;
54641;SDS011;40536;53.194;5.728;2022-09-09T03:41:36;371.27;;;352.92;;
54641;SDS011;40536;53.194;5.728;2022-09-09T03:44:02;354.67;;;337.40;;
54641;SDS011;40536;53.194;5.728;2022-09-09T03:46:28;341.33;;;324.42;;
54641;SDS011;40536;53.194;5.728;2022-09-09T03:48:53;313.30;;;298.42;;
54641;SDS011;40536;53.194;5.728;2022-09-09T03:51:19;263.65;;;251.18;;
54641;SDS011;40536;53.194;5.728;2022-09-09T03:53:45;246.95;;;234.50;;
54641;SDS011;40536;53.194;5.728;2022-09-09T03:56:11;241.23;;;229.63;;
54641;SDS011;40536;53.194;5.728;2022-09-09T03:58:37;237.52;;;226.15;;
54641;SDS011;40536;53.194;5.728;2022-09-09T04:01:04;251.18;;;238.70;;
54641;SDS011;40536;53.194;5.728;2022-09-09T04:03:33;246.13;;;233.98;;
54641;SDS011;40536;53.194;5.728;2022-09-09T04:06:00;221.63;;;210.07;;
54641;SDS011;40536;53.194;5.728;2022-09-09T04:08:28;217.52;;;206.68;;
54641;SDS011;40536;53.194;5.728;2022-09-09T04:10:56;215.40;;;204.93;;
54641;SDS011;40536;53.194;5.728;2022-09-09T04:13:23;174.05;;;165.13;;
54641;SDS011;40536;53.194;5.728;2022-09-09T04:15:50;174.90;;;165.98;;
54641;SDS011;40536;53.194;5.728;2022-09-09T04:18:17;180.20;;;171.20;;
54641;SDS011;40536;53.194;5.728;2022-09-09T04:20:45;170.10;;;161.70;;
54641;SDS011;40536;53.194;5.728;2022-09-09T04:23:12;214.68;;;204.32;;
54641;SDS011;40536;53.194;5.728;2022-09-09T04:25:43;224.48;;;213.63;;
54641;SDS011;40536;53.194;5.728;2022-09-09T04:28:13;213.25;;;202.90;;
54641;SDS011;40536;53.194;5.728;2022-09-09T04:30:40;209.98;;;199.65;;
54641;SDS011;40536;53.194;5.728;2022-09-09T04:33:06;204.60;;;194.90;;
54641;SDS011;40536;53.194;5.728;2022-09-09T04:35:32;183.50;;;174.77;;
54641;SDS011;40536;53.194;5.728;2022-09-09T04:37:58;171.20;;;162.75;;
54641;SDS011;40536;53.194;5.728;2022-09-09T04:40:24;198.95;;;189.40;;
54641;SDS011;40536;53.194;5.728;2022-09-09T04:42:50;220.07;;;209.73;;
54641;SDS011;40536;53.194;5.728;2022-09-09T04:45:16;247.50;;;235.60;;
54641;SDS011;40536;53.194;5.728;2022-09-09T04:47:42;262.08;;;249.98;;
54641;SDS011;40536;53.194;5.728;2022-09-09T04:50:08;286.63;;;272.90;;
54641;SDS011;40536;53.194;5.728;2022-09-09T04:52:34;259.73;;;247.80;;
54641;SDS011;40536;53.194;5.728;2022-09-09T04:55:00;242.57;;;231.23;;
54641;SDS011;40536;53.194;5.728;2022-09-09T04:57:27;267.33;;;254.57;;
54641;SDS011;40536;53.194;5.728;2022-09-09T04:59:53;235.85;;;224.57;;
54641;SDS011;40536;53.194;5.728;2022-09-09T05:02:19;259.15;;;245.70;;
54641;SDS011;40536;53.194;5.728;2022-09-09T05:04:45;219.00;;;208.48;;
54641;SDS011;40536;53.194;5.728;2022-09-09T05:07:10;223.70;;;212.68;;
54641;SDS011;40536;53.194;5.728;2022-09-09T05:09:36;211.38;;;200.88;;
54641;SDS011;40536;53.194;5.728;2022-09-09T05:12:02;203.07;;;193.00;;
54641;SDS011;40536;53.194;5.728;2022-09-09T05:14:28;224.00;;;213.55;;
54641;SDS011;40536;53.194;5.728;2022-09-09T05:16:55;216.65;;;205.77;;
54641;SDS011;40536;53.194;5.728;2022-09-09T05:19:21;236.05;;;224.73;;
54641;SDS011;40536;53.194;5.728;2022-09-09T05:21:47;278.45;;;263.75;;
54641;SDS011;40536;53.194;5.728;2022-09-09T05:24:13;240.23;;;228.48;;
54641;SDS011;40536;53.194;5.728;2022-09-09T05:26:38;237.45;;;225.60;;
54641;SDS011;40536;53.194;5.728;2022-09-09T05:29:04;251.45;;;239.10;;
54641;SDS011;40536;53.194;5.728;2022-09-09T05:31:31;237.77;;;226.05;;
54641;SDS011;40536;53.194;5.728;2022-09-09T05:33:57;198.55;;;188.90;;
54641;SDS011;40536;53.194;5.728;2022-09-09T05:36:24;208.27;;;198.15;;
54641;SDS011;40536;53.194;5.728;2022-09-09T05:38:49;177.20;;;168.02;;
54641;SDS011;40536;53.194;5.728;2022-09-09T05:41:16;180.05;;;170.45;;
54641;SDS011;40536;53.194;5.728;2022-09-09T05:43:42;187.52;;;178.20;;
54641;SDS011;40536;53.194;5.728;2022-09-09T05:46:13;163.38;;;154.52;;
54641;SDS011;40536;53.194;5.728;2022-09-09T05:48:40;175.88;;;166.70;;
54641;SDS011;40536;53.194;5.728;2022-09-09T05:51:08;180.70;;;171.43;;
54641;SDS011;40536;53.194;5.728;2022-09-09T05:53:40;168.98;;;159.73;;
54641;SDS011;40536;53.194;5.728;2022-09-09T05:56:11;152.98;;;144.25;;
54641;SDS011;40536;53.194;5.728;2022-09-09T05:58:42;165.95;;;157.27;;
54641;SDS011;40536;53.194;5.728;2022-09-09T06:01:19;178.38;;;168.13;;
54641;SDS011;40536;53.194;5.728;2022-09-09T06:03:49;186.07;;;176.27;;
54641;SDS011;40536;53.194;5.728;2022-09-09T06:06:17;206.55;;;195.60;;
54641;SDS011;40536;53.194;5.728;2022-09-09T06:08:49;159.85;;;151.05;;
54641;SDS011;40536;53.194;5.728;2022-09-09T06:11:18;182.50;;;172.65;;
54641;SDS011;40536;53.194;5.728;2022-09-09T06:13:46;148.68;;;140.68;;
54641;SDS011;40536;53.194;5.728;2022-09-09T06:16:16;141.98;;;134.02;;
54641;SDS011;40536;53.194;5.728;2022-09-09T06:18:43;127.88;;;120.65;;
54641;SDS011;40536;53.194;5.728;2022-09-09T06:21:16;121.22;;;113.90;;
54641;SDS011;40536;53.194;5.728;2022-09-09T06:23:43;116.45;;;109.22;;
54641;SDS011;40536;53.194;5.728;2022-09-09T06:26:13;135.18;;;127.80;;
54641;SDS011;40536;53.194;5.728;2022-09-09T06:28:42;93.35;;;87.85;;
54641;SDS011;40536;53.194;5.728;2022-09-09T06:31:09;107.07;;;100.82;;
54641;SDS011;40536;53.194;5.728;2022-09-09T06:33:37;116.22;;;109.47;;
54641;SDS011;40536;53.194;5.728;2022-09-09T06:36:06;116.57;;;109.95;;
54641;SDS011;40536;53.194;5.728;2022-09-09T06:38:35;105.97;;;100.25;;
54641;SDS011;40536;53.194;5.728;2022-09-09T06:41:00;176.98;;;165.88;;
54641;SDS011;40536;53.194;5.728;2022-09-09T06:43:27;144.93;;;135.70;;
54641;SDS011;40536;53.194;5.728;2022-09-09T06:45:53;127.20;;;120.40;;
54641;SDS011;40536;53.194;5.728;2022-09-09T06:48:20;115.63;;;109.50;;
54641;SDS011;40536;53.194;5.728;2022-09-09T06:50:46;119.68;;;113.57;;
54641;SDS011;40536;53.194;5.728;2022-09-09T06:53:12;171.75;;;162.52;;
54641;SDS011;40536;53.194;5.728;2022-09-09T06:55:41;115.97;;;109.85;;
54641;SDS011;40536;53.194;5.728;2022-09-09T06:58:09;114.82;;;108.68;;
54641;SDS011;40536;53.194;5.728;2022-09-09T07:00:34;99.68;;;94.35;;
54641;SDS011;40536;53.194;5.728;2022-09-09T07:03:02;161.27;;;152.45;;
54641;SDS011;40536;53.194;5.728;2022-09-09T07:05:28;98.65;;;93.15;;
54641;SDS011;40536;53.194;5.728;2022-09-09T07:07:54;104.25;;;98.55;;
54641;SDS011;40536;53.194;5.728;2022-09-09T07:10:20;111.07;;;105.28;;
54641;SDS011;40536;53.194;5.728;2022-09-09T07:12:49;122.75;;;116.00;;
54641;SDS011;40536;53.194;5.728;2022-09-09T07:15:17;184.27;;;173.48;;
54641;SDS011;40536;53.194;5.728;2022-09-09T07:17:43;114.43;;;108.63;;
54641;SDS011;40536;53.194;5.728;2022-09-09T07:20:10;105.45;;;99.80;;
54641;SDS011;40536;53.194;5.728;2022-09-09T07:22:36;112.60;;;106.63;;
54641;SDS011;40536;53.194;5.728;2022-09-09T07:25:02;119.88;;;113.35;;
54641;SDS011;40536;53.194;5.728;2022-09-09T07:27:28;117.53;;;111.65;;
54641;SDS011;40536;53.194;5.728;2022-09-09T07:29:55;139.65;;;131.93;;
54641;SDS011;40536;53.194;5.728;2022-09-09T07:32:21;110.55;;;105.03;;
54641;SDS011;40536;53.194;5.728;2022-09-09T07:34:46;109.45;;;104.13;;
54641;SDS011;40536;53.194;5.728;2022-09-09T07:37:12;131.60;;;124.95;;
54641;SDS011;40536;53.194;5.728;2022-09-09T07:39:39;164.77;;;155.55;;
54641;SDS011;40536;53.194;5.728;2022-09-09T07:42:05;174.50;;;165.55;;
54641;SDS011;40536;53.194;5.728;2022-09-09T07:44:31;124.55;;;118.15;;
54641;SDS011;40536;53.194;5.728;2022-09-09T07:47:00;132.85;;;125.97;;
54641;SDS011;40536;53.194;5.728;2022-09-09T07:49:26;151.45;;;143.45;;
54641;SDS011;40536;53.194;5.728;2022-09-09T07:51:52;163.32;;;155.65;;
54641;SDS011;40536;53.194;5.728;2022-09-09T07:54:19;157.05;;;149.57;;
54641;SDS011;40536;53.194;5.728;2022-09-09T07:56:45;123.10;;;117.32;;
54641;SDS011;40536;53.194;5.728;2022-09-09T07:59:12;140.02;;;133.15;;
54641;SDS011;40536;53.194;5.728;2022-09-09T08:01:43;116.18;;;110.32;;
54641;SDS011;40536;53.194;5.728;2022-09-09T08:04:14;133.40;;;126.72;;
54641;SDS011;40536;53.194;5.728;2022-09-09T08:06:43;136.30;;;129.93;;
54641;SDS011;40536;53.194;5.728;2022-09-09T08:09:13;145.05;;;137.90;;
54641;SDS011;40536;53.194;5.728;2022-09-09T08:11:40;129.13;;;122.85;;
54641;SDS011;40536;53.194;5.728;2022-09-09T08:14:06;129.68;;;123.15;;
54641;SDS011;40536;53.194;5.728;2022-09-09T08:16:34;98.20;;;93.15;;
54641;SDS011;40536;53.194;5.728;2022-09-09T08:19:02;91.80;;;87.03;;
54641;SDS011;40536;53.194;5.728;2022-09-09T08:21:30;87.85;;;83.00;;
54641;SDS011;40536;53.194;5.728;2022-09-09T08:23:57;94.25;;;88.93;;
54641;SDS011;40536;53.194;5.728;2022-09-09T08:26:26;89.95;;;85.15;;
54641;SDS011;40536;53.194;5.728;2022-09-09T08:28:54;166.65;;;158.30;;
54641;SDS011;40536;53.194;5.728;2022-09-09T08:31:29;250.88;;;238.43;;
54641;SDS011;40536;53.194;5.728;2022-09-09T08:34:02;117.07;;;111.13;;
54641;SDS011;40536;53.194;5.728;2022-09-09T08:36:29;91.50;;;86.57;;
54641;SDS011;40536;53.194;5.728;2022-09-09T08:39:01;70.78;;;66.68;;
54641;SDS011;40536;53.194;5.728;2022-09-09T08:58:11;51.15;;;48.08;;
54641;SDS011;40536;53.194;5.728;2022-09-09T09:00:43;47.22;;;44.28;;
54641;SDS011;40536;53.194;5.728;2022-09-09T09:09:16;51.97;;;48.80;;
54641;SDS011;40536;53.194;5.728;2022-09-09T09:11:44;50.75;;;48.00;;
54641;SDS011;40536;53.194;5.728;2022-09-09T09:14:22;54.33;;;51.00;;
54641;SDS011;40536;53.194;5.728;2022-09-09T09:19:38;52.63;;;49.45;;
54641;SDS011;40536;53.194;5.728;2022-09-09T09:22:18;83.55;;;78.28;;
54641;SDS011;40536;53.194;5.728;2022-09-09T09:29:59;59.10;;;55.13;;
54641;SDS011;40536;53.194;5.728;2022-09-09T09:32:26;50.28;;;47.22;;
54641;SDS011;40536;53.194;5.728;2022-09-09T09:34:58;58.00;;;54.60;;
54641;SDS011;40536;53.194;5.728;2022-09-09T09:37:30;88.45;;;83.53;;
54641;SDS011;40536;53.194;5.728;2022-09-09T09:40:17;90.03;;;85.47;;
54641;SDS011;40536;53.194;5.728;2022-09-09T09:42:54;54.85;;;51.40;;
54641;SDS011;40536;53.194;5.728;2022-09-09T09:45:34;47.08;;;44.20;;
54641;SDS011;40536;53.194;5.728;2022-09-09T09:48:09;77.13;;;72.38;;
54641;SDS011;40536;53.194;5.728;2022-09-09T09:50:40;82.85;;;77.90;;
54641;SDS011;40536;53.194;5.728;2022-09-09T09:53:32;102.93;;;97.47;;
54641;SDS011;40536;53.194;5.728;2022-09-09T09:56:01;74.80;;;70.65;;
54641;SDS011;40536;53.194;5.728;2022-09-09T10:04:00;109.90;;;104.65;;
54641;SDS011;40536;53.194;5.728;2022-09-09T10:06:32;63.95;;;60.55;;
54641;SDS011;40536;53.194;5.728;2022-09-09T10:08:59;57.53;;;54.42;;
54641;SDS011;40536;53.194;5.728;2022-09-09T10:22:47;36.08;;;33.97;;
54641;SDS011;40536;53.194;5.728;2022-09-09T10:30:46;29.60;;;27.80;;
54641;SDS011;40536;53.194;5.728;2022-09-09T10:33:37;36.25;;;34.17;;
54641;SDS011;40536;53.194;5.728;2022-09-09T10:36:19;29.67;;;27.75;;
54641;SDS011;40536;53.194;5.728;2022-09-09T10:47:07;19.17;;;17.55;;
54641;SDS011;40536;53.194;5.728;2022-09-09T10:52:47;16.08;;;14.07;;
54641;SDS011;40536;53.194;5.728;2022-09-09T10:55:44;15.32;;;14.13;;
54641;SDS011;40536;53.194;5.728;2022-09-09T10:58:25;13.85;;;12.75;;
54641;SDS011;40536;53.194;5.728;2022-09-09T11:00:59;20.10;;;18.67;;
54641;SDS011;40536;53.194;5.728;2022-09-09T11:03:32;15.73;;;14.63;;
54641;SDS011;40536;53.194;5.728;2022-09-09T11:06:00;15.95;;;14.70;;
54641;SDS011;40536;53.194;5.728;2022-09-09T11:08:31;14.52;;;13.13;;
54641;SDS011;40536;53.194;5.728;2022-09-09T11:13:49;12.98;;;11.98;;
54641;SDS011;40536;53.194;5.728;2022-09-09T11:16:39;12.63;;;11.38;;
54641;SDS011;40536;53.194;5.728;2022-09-09T11:21:49;13.48;;;12.23;;
54641;SDS011;40536;53.194;5.728;2022-09-09T11:26:56;14.45;;;13.45;;
54641;SDS011;40536;53.194;5.728;2022-09-09T11:29:44;18.88;;;17.13;;
54641;SDS011;40536;53.194;5.728;2022-09-09T11:38:15;19.30;;;17.83;;
54641;SDS011;40536;53.194;5.728;2022-09-09T11:40:41;20.75;;;19.38;;
54641;SDS011;40536;53.194;5.728;2022-09-09T11:43:14;25.65;;;24.05;;
54641;SDS011;40536;53.194;5.728;2022-09-09T11:45:50;20.60;;;17.38;;
54641;SDS011;40536;53.194;5.728;2022-09-09T11:48:23;16.15;;;14.95;;
54641;SDS011;40536;53.194;5.728;2022-09-09T11:50:57;17.00;;;15.63;;
54641;SDS011;40536;53.194;5.728;2022-09-09T11:53:34;16.88;;;15.38;;
54641;SDS011;40536;53.194;5.728;2022-09-09T11:56:12;19.48;;;18.00;;
54641;SDS011;40536;53.194;5.728;2022-09-09T11:58:55;16.63;;;15.35;;
54641;SDS011;40536;53.194;5.728;2022-09-09T12:04:12;17.20;;;15.73;;
54641;SDS011;40536;53.194;5.728;2022-09-09T12:17:20;17.40;;;15.93;;
54641;SDS011;40536;53.194;5.728;2022-09-09T12:19:48;18.63;;;17.10;;
54641;SDS011;40536;53.194;5.728;2022-09-09T12:25:29;26.00;;;24.13;;
54641;SDS011;40536;53.194;5.728;2022-09-09T12:30:32;29.88;;;27.67;;
54641;SDS011;40536;53.194;5.728;2022-09-09T12:33:11;28.88;;;26.92;;
54641;SDS011;40536;53.194;5.728;2022-09-09T12:35:38;30.45;;;28.52;;
54641;SDS011;40536;53.194;5.728;2022-09-09T12:38:06;32.95;;;30.77;;
54641;SDS011;40536;53.194;5.728;2022-09-09T12:40:39;41.97;;;39.25;;
54641;SDS011;40536;53.194;5.728;2022-09-09T12:43:21;56.50;;;53.20;;
54641;SDS011;40536;53.194;5.728;2022-09-09T12:48:16;30.40;;;28.40;;
54641;SDS011;40536;53.194;5.728;2022-09-09T12:50:45;35.75;;;33.40;;
54641;SDS011;40536;53.194;5.728;2022-09-09T12:53:49;38.13;;;35.75;;
54641;SDS011;40536;53.194;5.728;2022-09-09T12:56:18;25.50;;;23.92;;
54641;SDS011;40536;53.194;5.728;2022-09-09T12:58:46;30.02;;;28.13;;
54641;SDS011;40536;53.194;5.728;2022-09-09T13:01:34;21.00;;;19.55;;
54641;SDS011;40536;53.194;5.728;2022-09-09T13:04:00;21.80;;;20.20;;
54641;SDS011;40536;53.194;5.728;2022-09-09T13:06:30;24.83;;;23.33;;
54641;SDS011;40536;53.194;5.728;2022-09-09T13:08:57;21.30;;;19.77;;
54641;SDS011;40536;53.194;5.728;2022-09-09T13:13:56;24.92;;;23.20;;
54641;SDS011;40536;53.194;5.728;2022-09-09T13:16:27;24.00;;;22.10;;
54641;SDS011;40536;53.194;5.728;2022-09-09T13:19:13;28.15;;;26.58;;
54641;SDS011;40536;53.194;5.728;2022-09-09T13:21:41;28.35;;;26.52;;
54641;SDS011;40536;53.194;5.728;2022-09-09T13:27:26;31.38;;;29.58;;
54641;SDS011;40536;53.194;5.728;2022-09-09T13:29:59;28.55;;;26.63;;
54641;SDS011;40536;53.194;5.728;2022-09-09T13:32:25;26.98;;;25.25;;
54641;SDS011;40536;53.194;5.728;2022-09-09T13:34:53;23.25;;;21.85;;
54641;SDS011;40536;53.194;5.728;2022-09-09T13:37:34;23.75;;;22.35;;
54641;SDS011;40536;53.194;5.728;2022-09-09T13:40:06;29.92;;;27.92;;
54641;SDS011;40536;53.194;5.728;2022-09-09T13:42:41;33.63;;;31.75;;
54641;SDS011;40536;53.194;5.728;2022-09-09T13:45:17;47.60;;;44.80;;
54641;SDS011;40536;53.194;5.728;2022-09-09T13:47:45;91.75;;;87.18;;
54641;SDS011;40536;53.194;5.728;2022-09-09T13:52:53;132.30;;;125.57;;
54641;SDS011;40536;53.194;5.728;2022-09-09T13:55:23;193.68;;;183.80;;
54641;SDS011;40536;53.194;5.728;2022-09-09T13:57:52;151.60;;;144.77;;
54641;SDS011;40536;53.194;5.728;2022-09-09T14:00:19;165.82;;;158.13;;
54641;SDS011;40536;53.194;5.728;2022-09-09T14:02:46;115.72;;;110.28;;
54641;SDS011;40536;53.194;5.728;2022-09-09T14:05:12;94.32;;;90.00;;
54641;SDS011;40536;53.194;5.728;2022-09-09T14:07:38;85.95;;;81.78;;
54641;SDS011;40536;53.194;5.728;2022-09-09T14:10:05;63.88;;;60.70;;
54641;SDS011;40536;53.194;5.728;2022-09-09T14:12:31;47.67;;;45.08;;
54641;SDS011;40536;53.194;5.728;2022-09-09T14:14:57;45.17;;;42.67;;
54641;SDS011;40536;53.194;5.728;2022-09-09T14:17:24;46.40;;;43.90;;
54641;SDS011;40536;53.194;5.728;2022-09-09T14:19:54;34.20;;;32.25;;
54641;SDS011;40536;53.194;5.728;2022-09-09T14:22:21;27.50;;;25.95;;
54641;SDS011;40536;53.194;5.728;2022-09-09T14:24:47;34.15;;;32.10;;
54641;SDS011;40536;53.194;5.728;2022-09-09T14:27:12;34.42;;;32.53;;
54641;SDS011;40536;53.194;5.728;2022-09-09T14:29:38;29.33;;;27.48;;
54641;SDS011;40536;53.194;5.728;2022-09-09T14:32:04;31.05;;;29.45;;
54641;SDS011;40536;53.194;5.728;2022-09-09T14:34:30;34.55;;;32.50;;
54641;SDS011;40536;53.194;5.728;2022-09-09T14:36:59;21.77;;;20.67;;
54641;SDS011;40536;53.194;5.728;2022-09-09T14:39:24;42.03;;;39.72;;
54641;SDS011;40536;53.194;5.728;2022-09-09T14:41:50;30.13;;;28.33;;
54641;SDS011;40536;53.194;5.728;2022-09-09T14:44:16;25.73;;;24.00;;
54641;SDS011;40536;53.194;5.728;2022-09-09T14:46:41;25.63;;;24.13;;
54641;SDS011;40536;53.194;5.728;2022-09-09T14:49:10;26.77;;;25.00;;
54641;SDS011;40536;53.194;5.728;2022-09-09T14:51:35;570.05;;;535.72;;
54641;SDS011;40536;53.194;5.728;2022-09-09T14:54:01;428.88;;;405.63;;
54641;SDS011;40536;53.194;5.728;2022-09-09T14:56:29;201.52;;;190.35;;
54641;SDS011;40536;53.194;5.728;2022-09-09T14:58:56;278.23;;;264.20;;
54641;SDS011;40536;53.194;5.728;2022-09-09T15:01:26;196.93;;;188.00;;
54641;SDS011;40536;53.194;5.728;2022-09-09T15:03:59;328.33;;;311.65;;
54641;SDS011;40536;53.194;5.728;2022-09-09T15:06:27;165.68;;;158.07;;
54641;SDS011;40536;53.194;5.728;2022-09-09T15:08:58;239.43;;;227.38;;
54641;SDS011;40536;53.194;5.728;2022-09-09T15:11:38;238.40;;;226.05;;
54641;SDS011;40536;53.194;5.728;2022-09-09T15:14:41;217.15;;;204.32;;
54641;SDS011;40536;53.194;5.728;2022-09-09T15:18:00;159.85;;;151.23;;
54641;SDS011;40536;53.194;5.728;2022-09-09T15:23:27;233.80;;;216.52;;
54641;SDS011;40536;53.194;5.728;2022-09-09T15:26:07;222.70;;;209.52;;
54641;SDS011;40536;53.194;5.728;2022-09-09T15:28:37;178.27;;;166.38;;
54641;SDS011;40536;53.194;5.728;2022-09-09T15:31:19;152.75;;;143.93;;
54641;SDS011;40536;53.194;5.728;2022-09-09T15:33:50;99.88;;;94.65;;
54641;SDS011;40536;53.194;5.728;2022-09-09T15:36:19;110.85;;;103.45;;
54641;SDS011;40536;53.194;5.728;2022-09-09T15:38:46;100.28;;;93.97;;
54641;SDS011;40536;53.194;5.728;2022-09-09T15:41:13;130.38;;;122.55;;
54641;SDS011;40536;53.194;5.728;2022-09-09T15:43:42;118.10;;;111.35;;
54641;SDS011;40536;53.194;5.728;2022-09-09T15:48:42;260.00;;;241.98;;
54641;SDS011;40536;53.194;5.728;2022-09-09T15:51:09;210.68;;;196.88;;
54641;SDS011;40536;53.194;5.728;2022-09-09T15:53:36;198.95;;;184.38;;
54641;SDS011;40536;53.194;5.728;2022-09-09T15:56:04;129.50;;;121.53;;
54641;SDS011;40536;53.194;5.728;2022-09-09T15:58:32;124.05;;;116.15;;
54641;SDS011;40536;53.194;5.728;2022-09-09T16:01:05;122.30;;;115.18;;
54641;SDS011;40536;53.194;5.728;2022-09-09T16:03:35;78.90;;;74.28;;
54641;SDS011;40536;53.194;5.728;2022-09-09T16:06:01;99.75;;;94.45;;
54641;SDS011;40536;53.194;5.728;2022-09-09T16:08:46;116.00;;;108.93;;
54641;SDS011;40536;53.194;5.728;2022-09-09T16:11:48;105.90;;;100.05;;
54641;SDS011;40536;53.194;5.728;2022-09-09T16:14:06;89.60;;;83.95;;
54641;SDS011;40536;53.194;5.728;2022-09-09T16:16:32;129.70;;;120.70;;
54641;SDS011;40536;53.194;5.728;2022-09-09T16:19:00;116.13;;;109.20;;
54641;SDS011;40536;53.194;5.728;2022-09-09T16:21:33;116.30;;;109.53;;
54641;SDS011;40536;53.194;5.728;2022-09-09T16:24:01;122.28;;;114.53;;
54641;SDS011;40536;53.194;5.728;2022-09-09T16:26:29;154.68;;;145.40;;
54641;SDS011;40536;53.194;5.728;2022-09-09T16:28:56;74.75;;;70.30;;
54641;SDS011;40536;53.194;5.728;2022-09-09T16:31:24;129.23;;;120.20;;
54641;SDS011;40536;53.194;5.728;2022-09-09T16:33:51;85.32;;;80.47;;
54641;SDS011;40536;53.194;5.728;2022-09-09T16:36:21;126.97;;;119.07;;
54641;SDS011;40536;53.194;5.728;2022-09-09T16:38:56;49.28;;;46.58;;
54641;SDS011;40536;53.194;5.728;2022-09-09T16:41:27;323.00;;;306.48;;
54641;SDS011;40536;53.194;5.728;2022-09-09T16:46:20;52.22;;;49.80;;
54641;SDS011;40536;53.194;5.728;2022-09-09T16:48:47;80.78;;;76.85;;
54641;SDS011;40536;53.194;5.728;2022-09-09T16:51:18;115.68;;;110.07;;
54641;SDS011;40536;53.194;5.728;2022-09-09T16:53:46;236.82;;;220.10;;
54641;SDS011;40536;53.194;5.728;2022-09-09T16:56:19;194.05;;;185.38;;
54641;SDS011;40536;53.194;5.728;2022-09-09T16:58:51;127.13;;;121.38;;
54641;SDS011;40536;53.194;5.728;2022-09-09T17:01:21;217.80;;;208.27;;
54641;SDS011;40536;53.194;5.728;2022-09-09T17:03:51;176.82;;;167.15;;
54641;SDS011;40536;53.194;5.728;2022-09-09T17:06:18;172.10;;;163.48;;
54641;SDS011;40536;53.194;5.728;2022-09-09T17:08:44;330.70;;;313.23;;
54641;SDS011;40536;53.194;5.728;2022-09-09T17:11:11;225.90;;;215.50;;
54641;SDS011;40536;53.194;5.728;2022-09-09T17:13:40;140.77;;;134.18;;
54641;SDS011;40536;53.194;5.728;2022-09-09T17:16:06;169.13;;;161.10;;